Beacon Hill, Washington
Current Conditions -  °F | °C
As of 4:53 PM on Friday 24 Oct 2014 (Local Time) from KBFI Reporting Station
Overcast Overcast  
Wind Chill: 59°   Ceiling: 15000
Heat Index: 59°   Visibility: 10mi
Dew Point: 47°   Wind: 3mph
Humidity: 64%   Direction: 350°N
Pressure: 29.89"   Gusts: NA
Location:  47.5852°N, 122.3°W
Report Text: KBFI 242353Z 35003KT 10SM FEW100 OVC150 15/08 A2989 RMK AO2 SLP121 T01500083 10156 20128 58028
Loading
Personal Weather Stations






























Interactive Weather Map
Tropical Storm Tracking
New forecast layout! Learn more

10-Day Weather Forecast

Advertisements
Track Severe Weather on mobile